Time;durP1;ratioP1;P1;durP2;ratioP2;P2;SDS_P1;SDS_P2;PMS_P1;PMS_P2;Temp;Humidity;BMP_temperature;BMP_pressure;BME280_temperature;BME280_humidity;BME280_pressure;Samples;Min_cycle;Max_cycle;Signal;HPM_P1;HPM_P2
2022/01/08 00:00:01;;;;;;;1.63;1.53;;;;;;;-0.06;100.00;94339.38;5056207;28;20216;-74
2022/01/08 00:02:26;;;;;;;2.00;1.40;;;;;;;-0.14;100.00;94346.75;5054749;28;20194;-74
2022/01/08 00:04:52;;;;;;;2.10;1.70;;;;;;;-0.26;100.00;94315.09;5054005;28;20710;-73
2022/01/08 00:07:18;;;;;;;1.77;1.60;;;;;;;-0.22;100.00;94331.16;5070270;28;20611;-74
2022/01/08 00:09:43;;;;;;;4.37;1.70;;;;;;;-0.27;100.00;94326.22;5087336;28;20615;-74
2022/01/08 00:12:09;;;;;;;3.10;2.43;;;;;;;-0.31;100.00;94325.50;5085292;28;20190;-74
2022/01/08 00:14:35;;;;;;;2.87;2.00;;;;;;;-0.42;100.00;94316.81;5073732;28;20209;-74
2022/01/08 00:17:01;;;;;;;1.80;1.50;;;;;;;-0.42;100.00;94325.63;5054792;28;20211;-74
2022/01/08 00:19:27;;;;;;;2.50;1.87;;;;;;;-0.52;100.00;94313.09;5071847;28;20189;-74
2022/01/08 00:21:53;;;;;;;1.70;1.60;;;;;;;-0.49;100.00;94306.94;5073219;28;20224;-74
2022/01/08 00:24:18;;;;;;;1.77;1.53;;;;;;;-0.64;100.00;94305.56;5066840;28;20208;-74
2022/01/08 00:26:44;;;;;;;1.70;1.60;;;;;;;-0.72;100.00;94295.34;5045624;28;20209;-74
2022/01/08 00:29:09;;;;;;;3.47;1.63;;;;;;;-0.65;100.00;94301.38;5072182;28;20206;-74
2022/01/08 00:31:35;;;;;;;2.73;1.90;;;;;;;-0.77;100.00;94303.81;5073056;28;20182;-74
2022/01/08 00:34:01;;;;;;;2.43;1.63;;;;;;;-0.82;100.00;94294.28;5054577;28;20192;-74
2022/01/08 00:36:27;;;;;;;2.00;1.50;;;;;;;-0.87;100.00;94286.69;5065799;28;20226;-73
2022/01/08 00:38:52;;;;;;;2.00;1.80;;;;;;;-0.65;100.00;94289.91;5083515;28;20190;-74
2022/01/08 00:41:18;;;;;;;1.53;1.43;;;;;;;-0.84;100.00;94280.53;5068119;28;20215;-74
2022/01/08 00:43:44;;;;;;;1.70;1.60;;;;;;;-0.79;100.00;94298.09;5051673;28;20281;-74
2022/01/08 00:46:09;;;;;;;2.80;1.80;;;;;;;-0.64;100.00;94286.81;5053190;28;20236;-74
2022/01/08 00:48:35;;;;;;;2.73;2.13;;;;;;;-0.61;100.00;94286.00;5035776;28;20186;-74
2022/01/08 00:51:00;;;;;;;1.77;1.67;;;;;;;-0.68;100.00;94263.88;5055953;28;20214;-74
2022/01/08 00:53:26;;;;;;;2.07;1.80;;;;;;;-0.62;100.00;94281.81;5053363;28;20174;-74
2022/01/08 00:55:52;;;;;;;1.80;1.70;;;;;;;-0.66;100.00;94258.91;5059597;28;20300;-74
2022/01/08 00:58:17;;;;;;;2.10;1.90;;;;;;;-0.65;100.00;94255.03;5070739;28;20280;-74
2022/01/08 01:00:43;;;;;;;2.00;1.90;;;;;;;-0.85;100.00;94257.56;5058100;28;20224;-74
2022/01/08 01:03:09;;;;;;;2.03;1.93;;;;;;;-0.66;100.00;94250.84;5052809;28;20190;-74
2022/01/08 01:05:35;;;;;;;2.43;2.23;;;;;;;-1.09;100.00;94250.56;5068098;28;20271;-74
2022/01/08 01:08:01;;;;;;;2.13;1.70;;;;;;;-1.21;100.00;94248.38;5072419;28;20639;-74
2022/01/08 01:10:26;;;;;;;4.47;2.03;;;;;;;-1.11;100.00;94242.16;5084116;28;20707;-74
2022/01/08 01:12:52;;;;;;;2.93;2.03;;;;;;;-1.26;100.00;94233.47;5071424;28;20670;-74
2022/01/08 01:15:18;;;;;;;2.70;2.50;;;;;;;-1.39;100.00;94221.00;5066341;28;20680;-73
2022/01/08 01:17:45;;;;;;;2.30;2.10;;;;;;;-1.38;100.00;94222.53;5070341;28;20655;-73
2022/01/08 01:20:13;;;;;;;4.13;2.20;;;;;;;-1.34;100.00;94218.66;5072704;28;20189;-73
2022/01/08 01:23:17;;;;;;;2.33;1.80;;;;;;;-1.62;100.00;94207.47;5070496;28;20185;-73
2022/01/08 01:25:39;;;;;;;3.60;2.80;;;;;;;-1.54;100.00;94217.69;5065495;28;20272;-73
2022/01/08 01:49:20;;;;;;;3.20;2.20;;;;;;;-2.29;100.00;94172.47;5071730;28;20194;-73
2022/01/08 01:51:46;;;;;;;1.90;1.80;;;;;;;-2.73;100.00;94173.09;5070637;28;20189;-73
2022/01/08 01:54:12;;;;;;;2.03;1.83;;;;;;;-2.65;100.00;94171.94;5069667;28;20280;-73
2022/01/08 01:56:38;;;;;;;2.77;2.10;;;;;;;-2.89;100.00;94156.81;5053521;28;20225;-73
2022/01/08 01:59:05;;;;;;;3.67;2.70;;;;;;;-2.97;100.00;94153.41;5068756;28;20190;-73
2022/01/08 02:01:31;;;;;;;2.57;2.37;;;;;;;-2.94;100.00;94155.31;5069587;28;20197;-74
2022/01/08 02:03:57;;;;;;;2.93;2.43;;;;;;;-2.83;100.00;94152.56;5051286;28;20198;-73
2022/01/08 02:06:23;;;;;;;2.77;2.17;;;;;;;-2.68;100.00;94138.72;5054973;28;20731;-73
2022/01/08 02:08:48;;;;;;;3.27;2.40;;;;;;;-2.58;100.00;94145.19;5080307;28;20311;-73
2022/01/08 02:11:17;;;;;;;4.50;2.47;;;;;;;-2.53;100.00;94142.09;5073081;28;20289;-73
2022/01/08 02:13:42;;;;;;;2.53;2.30;;;;;;;-2.56;100.00;94148.19;5050066;28;20716;-73
2022/01/08 02:16:16;;;;;;;2.57;2.03;;;;;;;-2.61;100.00;94124.56;5055808;28;20352;-73
2022/01/08 02:18:46;;;;;;;2.13;1.90;;;;;;;-2.68;100.00;94129.97;5051309;28;20565;-73
2022/01/08 02:21:13;;;;;;;2.67;1.87;;;;;;;-2.56;100.00;94130.25;5051312;28;20584;-73
2022/01/08 02:23:41;;;;;;;2.77;2.20;;;;;;;-2.68;100.00;94129.97;5051662;28;20629;-73
2022/01/08 02:26:08;;;;;;;2.90;2.40;;;;;;;-2.57;100.00;94119.97;5050885;28;20206;-73
2022/01/08 02:28:38;;;;;;;3.40;2.40;;;;;;;-2.54;100.00;94119.16;5051459;28;20252;-73
2022/01/08 02:31:04;;;;;;;4.07;2.20;;;;;;;-2.58;100.00;94110.44;5050125;28;20245;-73
2022/01/08 02:33:30;;;;;;;2.83;2.53;;;;;;;-2.73;100.00;94112.44;5039572;28;20210;-74
2022/01/08 02:35:56;;;;;;;2.83;2.57;;;;;;;-3.06;100.00;94112.25;5050696;28;20230;-73
2022/01/08 02:38:23;;;;;;;3.03;2.60;;;;;;;-2.70;100.00;94102.88;5074767;28;20197;-73
2022/01/08 02:40:57;;;;;;;3.23;2.50;;;;;;;-2.74;100.00;94105.56;5085556;28;20285;-73
2022/01/08 02:43:23;;;;;;;2.77;2.10;;;;;;;-3.02;100.00;94103.06;5052443;28;20198;-73
2022/01/08 02:45:49;;;;;;;4.00;2.20;;;;;;;-3.19;100.00;94095.16;5033105;28;20271;-73
2022/01/08 02:48:15;;;;;;;2.60;2.40;;;;;;;-3.12;100.00;94087.84;5050632;28;20339;-73
2022/01/08 02:50:41;;;;;;;2.90;2.27;;;;;;;-3.14;100.00;94081.41;5053341;28;20274;-73
2022/01/08 02:53:07;;;;;;;4.53;2.07;;;;;;;-3.09;100.00;94089.00;5068070;28;20356;-73
2022/01/08 02:55:32;;;;;;;2.73;2.30;;;;;;;-3.11;100.00;94083.28;5050142;28;20352;-73
2022/01/08 02:57:58;;;;;;;2.40;2.20;;;;;;;-3.18;100.00;94075.31;5050595;28;20201;-73
2022/01/08 03:00:24;;;;;;;3.13;2.83;;;;;;;-3.18;100.00;94078.00;5049785;28;20194;-73
2022/01/08 03:02:52;;;;;;;2.10;1.90;;;;;;;-2.97;100.00;94065.25;5046796;28;20234;-73
2022/01/08 03:05:19;;;;;;;4.90;2.40;;;;;;;-3.25;100.00;94070.78;5043780;28;20312;-73
2022/01/08 03:07:46;;;;;;;2.43;2.23;;;;;;;-3.30;100.00;94057.06;5064824;28;20277;-73
2022/01/08 03:10:14;;;;;;;2.73;1.97;;;;;;;-3.19;100.00;94058.53;5073843;28;20193;-73
2022/01/08 03:12:42;;;;;;;2.27;2.07;;;;;;;-3.38;100.00;94045.69;5053058;28;20277;-73
2022/01/08 03:15:14;;;;;;;2.20;2.00;;;;;;;-3.41;100.00;94049.13;5060165;28;20245;-73
2022/01/08 03:17:41;;;;;;;1.83;1.70;;;;;;;-3.56;100.00;94044.25;5068095;28;20194;-73
2022/01/08 03:20:11;;;;;;;1.90;1.77;;;;;;;-3.38;100.00;94040.34;5074453;28;20261;-73
2022/01/08 03:22:38;;;;;;;1.90;1.80;;;;;;;-3.49;100.00;94047.63;5073028;28;20280;-73
2022/01/08 03:25:05;;;;;;;1.53;1.43;;;;;;;-3.86;100.00;94044.75;5064603;28;20216;-74
2022/01/08 03:27:32;;;;;;;2.77;1.90;;;;;;;-3.75;100.00;94048.88;5052471;28;20179;-73
2022/01/08 03:29:57;;;;;;;1.90;1.80;;;;;;;-3.68;100.00;94020.69;5054450;28;20186;-73
2022/01/08 03:32:23;;;;;;;2.57;2.17;;;;;;;-3.63;100.00;94036.28;5052677;28;20236;-74
2022/01/08 03:34:49;;;;;;;2.60;1.93;;;;;;;-3.75;100.00;94021.47;5057283;28;20277;-73
2022/01/08 03:37:15;;;;;;;5.50;1.90;;;;;;;-3.59;100.00;94016.44;5063857;28;20214;-73
2022/01/08 03:39:41;;;;;;;3.30;1.97;;;;;;;-3.95;100.00;94018.50;5079284;28;20224;-73
2022/01/08 03:42:07;;;;;;;2.87;1.97;;;;;;;-3.80;100.00;94009.28;5067045;28;20202;-73
2022/01/08 03:44:33;;;;;;;1.70;1.60;;;;;;;-3.67;100.00;94014.19;5047117;28;20217;-73
2022/01/08 03:47:21;;;;;;;1.77;1.67;;;;;;;-3.63;100.00;94005.00;5059903;28;20201;-73
2022/01/08 03:49:44;;;;;;;2.13;1.90;;;;;;;-3.62;100.00;94011.88;5083578;28;20631;-73
2022/01/08 03:52:12;;;;;;;2.20;1.97;;;;;;;-3.67;100.00;94009.63;5091353;28;20201;-73
2022/01/08 03:54:38;;;;;;;2.33;2.03;;;;;;;-3.36;100.00;93997.25;5073284;28;20722;-73
2022/01/08 03:57:04;;;;;;;1.90;1.70;;;;;;;-3.43;100.00;93998.06;5072304;28;20729;-73
2022/01/08 03:59:30;;;;;;;1.80;1.70;;;;;;;-3.64;100.00;93992.06;5065339;28;20656;-73
2022/01/08 04:01:56;;;;;;;1.70;1.60;;;;;;;-3.44;100.00;93974.41;5054979;28;20224;-73
2022/01/08 04:04:22;;;;;;;4.30;1.70;;;;;;;-3.32;100.00;93993.41;5070960;28;20201;-73
2022/01/08 04:06:47;;;;;;;1.93;1.77;;;;;;;-3.62;100.00;93987.09;5076178;28;20235;-74
2022/01/08 04:09:13;;;;;;;1.97;1.50;;;;;;;-3.62;100.00;93982.53;5085593;28;20238;-73
2022/01/08 04:11:40;;;;;;;1.70;1.60;;;;;;;-3.55;100.00;93982.50;5069680;28;20574;-73
2022/01/08 04:14:05;;;;;;;2.17;2.00;;;;;;;-3.50;100.00;93970.66;5046514;28;20674;-73
2022/01/08 04:16:34;;;;;;;2.13;1.83;;;;;;;-3.34;100.00;93962.94;5071806;28;20214;-73
2022/01/08 04:19:00;;;;;;;1.63;1.53;;;;;;;-3.17;100.00;93975.41;5073711;28;20573;-73
2022/01/08 04:23:57;;;;;;;1.60;1.50;;;;;;;-3.41;100.00;93968.31;5066381;28;20664;-73
2022/01/08 04:26:23;;;;;;;3.80;1.80;;;;;;;-3.29;100.00;93968.59;5052209;28;20206;-72
2022/01/08 04:28:49;;;;;;;2.20;1.97;;;;;;;-3.14;100.00;93967.34;5065276;28;20655;-73
2022/01/08 04:31:15;;;;;;;1.90;1.80;;;;;;;-2.99;100.00;93974.13;5071711;28;20886;-73
2022/01/08 04:33:41;;;;;;;1.90;1.57;;;;;;;-3.04;100.00;93971.09;5034053;28;20211;-73
2022/01/08 04:36:07;;;;;;;2.37;1.80;;;;;;;-3.37;100.00;93969.81;5072932;28;20691;-73
2022/01/08 04:38:33;;;;;;;2.30;2.10;;;;;;;-3.18;100.00;93971.19;5064254;28;20222;-73
2022/01/08 04:40:59;;;;;;;4.17;1.97;;;;;;;-2.62;100.00;93974.19;5088689;28;20275;-73
2022/01/08 04:43:25;;;;;;;1.73;1.63;;;;;;;-3.10;100.00;93978.75;5062484;28;20601;-73
2022/01/08 04:45:51;;;;;;;1.97;1.80;;;;;;;-3.36;100.00;93992.66;5066733;28;20706;-73
2022/01/08 04:48:18;;;;;;;1.43;1.33;;;;;;;-3.21;100.00;93983.44;5051382;28;20188;-73
2022/01/08 04:50:43;;;;;;;1.50;1.40;;;;;;;-3.36;100.00;94007.94;5051590;28;20195;-73
2022/01/08 04:53:10;;;;;;;1.80;1.70;;;;;;;-3.08;100.00;93984.47;5052302;28;20191;-73
2022/01/08 04:55:37;;;;;;;1.90;1.80;;;;;;;-2.79;100.00;93993.03;5052102;28;20206;-73
2022/01/08 04:58:03;;;;;;;2.63;2.10;;;;;;;-2.89;100.00;94001.88;5052570;28;20194;-73
2022/01/08 05:00:29;;;;;;;2.87;2.27;;;;;;;-2.59;100.00;93983.31;5053348;28;20186;-73
2022/01/08 05:02:55;;;;;;;2.60;2.40;;;;;;;-2.35;100.00;94000.25;5052969;28;20210;-73
2022/01/08 05:05:21;;;;;;;3.60;2.33;;;;;;;-2.20;100.00;94020.34;5049002;28;20202;-73
2022/01/08 05:07:46;;;;;;;2.70;2.10;;;;;;;-2.12;100.00;93985.13;5064800;28;20186;-73
2022/01/08 05:10:12;;;;;;;7.77;2.23;;;;;;;-2.16;100.00;93997.00;5058600;28;20190;-73
2022/01/08 05:12:38;;;;;;;1.90;1.80;;;;;;;-2.13;100.00;94004.22;5071402;28;20201;-73
2022/01/08 05:15:05;;;;;;;1.60;1.30;;;;;;;-1.89;100.00;93992.50;5067320;28;20218;-73
2022/01/08 05:17:35;;;;;;;1.20;1.03;;;;;;;-1.73;100.00;94001.47;5071070;28;20221;-73
2022/01/08 05:20:10;;;;;;;1.60;1.20;;;;;;;-1.64;100.00;93983.03;5040758;28;20190;-73
2022/01/08 05:22:52;;;;;;;1.43;1.33;;;;;;;-1.60;100.00;93974.94;5057507;28;20193;-73
2022/01/08 05:25:21;;;;;;;2.47;1.60;;;;;;;-1.55;100.00;93958.44;5069232;28;20213;-73
2022/01/08 05:27:48;;;;;;;2.30;1.57;;;;;;;-1.42;100.00;93960.16;5066122;28;20187;-73
2022/01/08 05:30:17;;;;;;;2.80;1.80;;;;;;;-1.32;100.00;93964.63;5058279;28;20210;-73
2022/01/08 05:32:42;;;;;;;3.60;1.50;;;;;;;-1.22;100.00;93963.72;5034446;28;20214;-73
2022/01/08 05:35:08;;;;;;;5.83;4.00;;;;;;;-0.98;100.00;93969.84;5051028;28;20268;-73
2022/01/08 05:37:34;;;;;;;4.10;2.30;;;;;;;-0.93;100.00;93963.28;5069610;28;20212;-73
2022/01/08 05:40:00;;;;;;;2.17;1.63;;;;;;;-1.14;100.00;93966.28;5072131;28;20193;-74
2022/01/08 05:42:26;;;;;;;1.40;1.30;;;;;;;-1.23;100.00;93964.13;5072679;28;20221;-73
2022/01/08 05:44:52;;;;;;;3.13;1.50;;;;;;;-1.13;100.00;93970.47;5064999;28;20277;-73
2022/01/08 05:47:20;;;;;;;1.33;1.23;;;;;;;-1.13;100.00;93987.31;5065404;28;20276;-73
2022/01/08 05:49:46;;;;;;;1.33;1.23;;;;;;;-1.31;100.00;93976.09;5064215;28;20287;-73
2022/01/08 05:52:11;;;;;;;1.43;1.30;;;;;;;-1.33;100.00;93997.94;5050460;28;20286;-73
2022/01/08 05:54:37;;;;;;;1.43;1.17;;;;;;;-1.05;100.00;93986.03;5051526;28;20205;-73
2022/01/08 05:57:03;;;;;;;1.57;1.10;;;;;;;-1.12;100.00;93975.41;5059005;28;20209;-73
2022/01/08 05:59:29;;;;;;;0.80;0.80;;;;;;;-1.03;100.00;93981.03;5066610;28;20198;-73
2022/01/08 06:01:55;;;;;;;2.87;1.47;;;;;;;-1.02;100.00;93987.16;5051626;28;20252;-73
2022/01/08 06:04:20;;;;;;;2.97;1.90;;;;;;;-1.00;100.00;93992.88;5051013;28;20199;-73
2022/01/08 06:06:46;;;;;;;1.23;1.13;;;;;;;-0.95;100.00;94003.88;5060972;28;20226;-73
2022/01/08 06:09:12;;;;;;;1.23;1.10;;;;;;;-0.82;100.00;93985.31;5076631;28;20185;-73
2022/01/08 06:11:38;;;;;;;1.93;1.33;;;;;;;-0.87;100.00;93993.81;5092146;28;20189;-73
2022/01/08 06:14:04;;;;;;;1.13;1.07;;;;;;;-0.78;100.00;93986.75;5065974;28;20186;-73
2022/01/08 06:16:34;;;;;;;1.17;0.97;;;;;;;-0.75;100.00;93988.66;5050291;28;20213;-73
2022/01/08 06:19:05;;;;;;;1.30;1.20;;;;;;;-0.78;100.00;93989.44;5070002;28;20201;-73
2022/01/08 06:21:31;;;;;;;1.67;1.57;;;;;;;-0.73;100.00;94002.38;5051572;28;20693;-73
2022/01/08 06:23:57;;;;;;;1.47;1.27;;;;;;;-0.60;100.00;94008.69;5067112;28;20189;-73
2022/01/08 06:26:23;;;;;;;1.30;0.90;;;;;;;-0.71;100.00;94004.69;5049827;28;20218;-73
2022/01/08 06:28:51;;;;;;;1.13;0.90;;;;;;;-0.71;100.00;94007.34;5051264;28;20202;-73
2022/01/08 06:31:19;;;;;;;1.00;0.90;;;;;;;-0.71;100.00;94010.78;5051551;28;20199;-73
2022/01/08 06:33:45;;;;;;;1.30;1.20;;;;;;;-0.74;100.00;94013.50;5069130;28;20193;-73
2022/01/08 06:36:11;;;;;;;1.03;1.00;;;;;;;-0.75;100.00;93999.38;5065809;28;20272;-73
2022/01/08 06:38:37;;;;;;;1.37;1.03;;;;;;;-0.71;100.00;94013.47;5081843;28;20294;-73
2022/01/08 06:41:03;;;;;;;1.33;1.00;;;;;;;-0.70;100.00;94017.66;5075869;28;20227;-73
2022/01/08 06:43:28;;;;;;;0.83;0.77;;;;;;;-0.69;100.00;94011.13;5073649;28;20189;-73
2022/01/08 06:45:54;;;;;;;1.50;0.80;;;;;;;-0.68;100.00;94006.53;5051666;28;20217;-74
2022/01/08 06:48:19;;;;;;;1.60;1.00;;;;;;;-0.77;100.00;94017.78;5056389;28;20185;-73
2022/01/08 06:50:45;;;;;;;0.57;0.57;;;;;;;-0.70;100.00;94028.41;5062721;28;20190;-73
2022/01/08 06:53:11;;;;;;;0.60;0.60;;;;;;;-0.65;100.00;94030.63;5052120;28;20243;-73
2022/01/08 06:55:36;;;;;;;0.47;0.47;;;;;;;-0.73;100.00;94023.81;5054793;28;20287;-73
2022/01/08 06:58:02;;;;;;;0.93;0.90;;;;;;;-0.61;100.00;94025.19;5053449;28;20202;-74
2022/01/08 07:00:28;;;;;;;1.60;1.50;;;;;;;-0.56;100.00;94035.47;5042482;28;20200;-73
2022/01/08 07:02:54;;;;;;;0.60;0.60;;;;;;;-0.52;100.00;94017.38;5073441;28;20189;-74
2022/01/08 07:05:19;;;;;;;1.00;0.40;;;;;;;-0.38;100.00;94020.59;5071753;28;20214;-73
2022/01/08 07:07:45;;;;;;;0.40;0.40;;;;;;;-0.25;100.00;94029.56;5081159;28;20262;-74
2022/01/08 07:10:11;;;;;;;0.97;0.50;;;;;;;-0.28;100.00;94019.66;5077209;28;20334;-73
2022/01/08 07:12:37;;;;;;;0.40;0.40;;;;;;;-0.09;100.00;94018.94;5074981;28;20192;-74
2022/01/08 07:15:03;;;;;;;0.63;0.50;;;;;;;0.03;100.00;94031.75;5044113;28;20217;-73
2022/01/08 07:17:29;;;;;;;1.47;0.50;;;;;;;0.17;100.00;94028.03;5054309;28;20655;-73
2022/01/08 07:19:55;;;;;;;1.80;0.50;;;;;;;0.25;100.00;94016.00;5037367;28;20221;-73
2022/01/08 07:22:20;;;;;;;1.27;1.17;;;;;;;0.31;100.00;94040.44;5055536;28;20239;-73
2022/01/08 07:24:46;;;;;;;1.90;0.40;;;;;;;0.35;100.00;94036.53;5045043;28;20187;-73
2022/01/08 07:27:12;;;;;;;0.40;0.40;;;;;;;0.36;100.00;94035.34;5070063;28;20553;-73
2022/01/08 07:29:38;;;;;;;0.57;0.50;;;;;;;0.34;100.00;94037.69;5083096;28;20202;-73
2022/01/08 07:32:04;;;;;;;0.30;0.30;;;;;;;0.37;100.00;94038.81;5061811;28;20218;-73
2022/01/08 07:34:30;;;;;;;0.63;0.50;;;;;;;0.29;100.00;94026.69;5070048;28;20620;-73
2022/01/08 07:36:56;;;;;;;1.07;0.70;;;;;;;0.32;100.00;94040.06;5070332;28;20283;-74
2022/01/08 07:39:22;;;;;;;0.70;0.60;;;;;;;0.35;100.00;94041.13;5085152;28;20987;-73
2022/01/08 07:41:47;;;;;;;0.60;0.60;;;;;;;0.37;100.00;94044.94;5066121;28;20648;-73
2022/01/08 07:44:19;;;;;;;3.20;0.80;;;;;;;0.40;100.00;94051.41;5053104;28;20223;-73
2022/01/08 07:46:45;;;;;;;0.30;0.30;;;;;;;0.48;100.00;94034.72;5053641;28;20672;-73
2022/01/08 07:49:11;;;;;;;0.70;0.60;;;;;;;0.49;100.00;94054.31;5054365;28;20190;-73
2022/01/08 07:51:36;;;;;;;1.70;0.50;;;;;;;0.49;100.00;94046.25;5043409;28;20568;-73
2022/01/08 07:54:02;;;;;;;1.00;0.50;;;;;;;0.53;100.00;94052.28;5067429;28;20793;-74
2022/01/08 07:56:28;;;;;;;0.40;0.40;;;;;;;0.54;100.00;94054.59;5073472;28;20641;-73
2022/01/08 07:58:53;;;;;;;3.87;2.40;;;;;;;0.64;100.00;94047.47;5073750;28;20676;-72
2022/01/08 08:01:21;;;;;;;2.30;1.60;;;;;;;0.67;100.00;94043.97;5066374;28;20594;-74
2022/01/08 08:03:47;;;;;;;2.03;0.57;;;;;;;0.77;100.00;94059.88;5053031;28;20182;-73
2022/01/08 08:06:13;;;;;;;1.07;0.50;;;;;;;0.86;100.00;94059.31;5058329;28;20246;-73
2022/01/08 08:08:38;;;;;;;0.70;0.60;;;;;;;0.87;100.00;94066.94;5084623;28;20603;-73
2022/01/08 08:11:04;;;;;;;0.87;0.40;;;;;;;0.95;100.00;94056.81;5065045;28;22309;-73
2022/01/08 08:13:29;;;;;;;0.40;0.40;;;;;;;0.97;100.00;94079.41;5052581;28;20655;-73
2022/01/08 08:15:55;;;;;;;0.40;0.40;;;;;;;1.00;100.00;94062.44;5072567;28;20636;-73
2022/01/08 08:18:21;;;;;;;0.50;0.50;;;;;;;1.10;100.00;94074.91;5073061;28;20611;-74
2022/01/08 08:20:47;;;;;;;1.37;0.50;;;;;;;1.20;100.00;94083.94;5071894;28;20574;-73
2022/01/08 08:23:12;;;;;;;0.60;0.40;;;;;;;1.38;100.00;94080.84;5045425;28;20620;-73
2022/01/08 08:25:38;;;;;;;0.50;0.50;;;;;;;1.37;100.00;94093.56;5073502;28;20627;-73
2022/01/08 08:28:05;;;;;;;0.50;0.40;;;;;;;1.24;100.00;94103.41;5071365;28;20190;-73
2022/01/08 08:30:33;;;;;;;0.50;0.50;;;;;;;1.34;100.00;94113.19;5072076;28;20190;-73
2022/01/08 08:32:59;;;;;;;0.77;0.43;;;;;;;1.38;100.00;94113.13;5057467;28;20218;-73
2022/01/08 08:35:25;;;;;;;0.60;0.50;;;;;;;1.34;100.00;94104.38;5035223;28;20280;-73
2022/01/08 08:37:51;;;;;;;1.53;0.40;;;;;;;1.33;100.00;94108.22;5052399;28;20201;-73
2022/01/08 08:40:17;;;;;;;0.40;0.40;;;;;;;1.30;100.00;94115.22;5081801;28;20277;-73
2022/01/08 08:42:43;;;;;;;0.40;0.40;;;;;;;1.27;100.00;94113.38;5060010;28;20218;-73
2022/01/08 08:45:10;;;;;;;0.73;0.50;;;;;;;1.15;100.00;94114.00;5059873;28;20210;-73
2022/01/08 08:47:35;;;;;;;0.33;0.33;;;;;;;1.12;100.00;94115.56;5052684;28;20221;-73
2022/01/08 08:50:06;;;;;;;0.40;0.40;;;;;;;1.12;100.00;94118.25;5035104;28;20286;-72
2022/01/08 08:52:32;;;;;;;0.30;0.30;;;;;;;1.10;100.00;94128.66;5051909;28;20187;-73
2022/01/08 08:54:58;;;;;;;0.30;0.30;;;;;;;1.11;100.00;94129.44;5052147;28;20214;-74
2022/01/08 08:57:25;;;;;;;0.60;0.40;;;;;;;1.07;100.00;94126.06;5052316;28;20215;-73
2022/01/08 08:59:50;;;;;;;0.40;0.40;;;;;;;0.94;100.00;94142.06;5052852;28;20205;-73
2022/01/08 09:02:16;;;;;;;0.73;0.40;;;;;;;0.84;100.00;94153.03;5052573;28;20212;-73
2022/01/08 09:04:42;;;;;;;0.37;0.37;;;;;;;0.87;100.00;94131.44;5053706;28;20193;-73
2022/01/08 09:07:08;;;;;;;1.03;0.50;;;;;;;1.03;100.00;94165.72;5069044;28;20193;-73
2022/01/08 09:09:35;;;;;;;0.70;0.60;;;;;;;1.13;100.00;94170.88;5082431;28;20186;-73
2022/01/08 09:12:01;;;;;;;0.50;0.50;;;;;;;1.18;100.00;94181.16;5055973;28;20277;-73
2022/01/08 09:14:27;;;;;;;0.30;0.30;;;;;;;1.04;100.00;94196.78;5060352;28;20260;-73
2022/01/08 09:16:57;;;;;;;1.80;0.60;;;;;;;1.12;100.00;94190.13;5060915;28;20213;-73
2022/01/08 09:19:23;;;;;;;0.40;0.40;;;;;;;1.13;100.00;94195.09;5072295;28;20201;-73
2022/01/08 09:21:50;;;;;;;0.70;0.70;;;;;;;1.07;100.00;94212.09;5070653;28;20228;-73
2022/01/08 09:24:18;;;;;;;0.50;0.50;;;;;;;0.84;100.00;94215.59;5055244;28;20260;-73
2022/01/08 09:26:45;;;;;;;0.93;0.43;;;;;;;0.47;100.00;94226.59;5051752;28;20203;-73
2022/01/08 09:29:10;;;;;;;0.60;0.53;;;;;;;0.54;100.00;94225.72;5034361;28;20197;-73
2022/01/08 09:31:38;;;;;;;1.70;0.60;;;;;;;0.69;100.00;94230.47;5067952;28;20198;-73
2022/01/08 09:34:03;;;;;;;0.50;0.50;;;;;;;0.95;100.00;94234.97;5068724;28;20202;-73
2022/01/08 09:36:29;;;;;;;1.07;0.67;;;;;;;1.02;100.00;94239.44;5064502;28;20218;-73
2022/01/08 09:38:55;;;;;;;0.67;0.50;;;;;;;1.01;100.00;94241.41;5081779;28;20250;-73
2022/01/08 09:41:21;;;;;;;0.93;0.50;;;;;;;1.01;100.00;94248.69;5070627;28;20208;-73
2022/01/08 09:43:47;;;;;;;0.53;0.53;;;;;;;1.12;100.00;94255.41;5057535;28;20234;-73
2022/01/08 09:46:15;;;;;;;1.33;0.73;;;;;;;1.25;100.00;94252.84;5066810;28;20229;-73
2022/01/08 09:48:42;;;;;;;0.70;0.70;;;;;;;1.12;100.00;94252.69;5053503;28;20669;-73
2022/01/08 09:51:07;;;;;;;0.53;0.53;;;;;;;1.37;100.00;94275.69;5071500;28;20193;-73
2022/01/08 09:53:35;;;;;;;0.60;0.60;;;;;;;1.46;100.00;94260.50;5062495;28;20252;-73
2022/01/08 09:56:01;;;;;;;0.60;0.60;;;;;;;1.33;100.00;94265.00;5068776;28;20275;-73
2022/01/08 09:58:27;;;;;;;0.50;0.50;;;;;;;1.31;100.00;94271.97;5053471;28;20652;-73
2022/01/08 10:00:52;;;;;;;0.70;0.70;;;;;;;1.30;100.00;94281.19;5070120;28;20631;-73
2022/01/08 10:03:24;;;;;;;0.50;0.50;;;;;;;1.36;100.00;94287.63;5059537;28;20266;-73
2022/01/08 10:05:54;;;;;;;1.30;0.80;;;;;;;1.55;100.00;94282.25;5051415;28;20554;-73
2022/01/08 10:08:28;;;;;;;0.60;0.60;;;;;;;1.48;100.00;94293.13;5073647;28;20190;-73
2022/01/08 10:11:02;;;;;;;0.70;0.70;;;;;;;1.47;100.00;94293.56;5056868;28;20198;-73
2022/01/08 10:13:32;;;;;;;0.67;0.67;;;;;;;1.43;100.00;94296.31;5050960;28;20186;-73
2022/01/08 10:18:45;;;;;;;0.90;0.70;;;;;;;1.69;100.00;94290.03;5052650;28;20193;-73
2022/01/08 10:21:18;;;;;;;2.17;0.93;;;;;;;2.08;98.59;94318.84;5068975;28;20197;-73
2022/01/08 10:23:47;;;;;;;1.10;0.73;;;;;;;2.26;94.24;94311.91;5068421;28;20208;-74
2022/01/08 10:26:16;;;;;;;1.17;0.87;;;;;;;2.21;93.49;94307.03;5058785;28;20233;-74
2022/01/08 10:28:52;;;;;;;1.07;0.90;;;;;;;2.37;92.96;94312.44;5049392;28;20187;-74
2022/01/08 10:31:21;;;;;;;0.57;0.57;;;;;;;2.25;92.18;94306.94;5047088;28;20189;-73
2022/01/08 10:34:04;;;;;;;0.57;0.57;;;;;;;2.65;91.11;94308.34;5071368;28;20258;-73
2022/01/08 10:36:35;;;;;;;0.90;0.80;;;;;;;2.88;88.31;94329.75;5066594;28;20206;-73
2022/01/08 10:39:28;;;;;;;1.40;0.93;;;;;;;2.81;88.94;94326.44;5064612;28;20189;-73
2022/01/08 10:41:56;;;;;;;0.80;0.80;;;;;;;2.62;90.46;94340.75;5049278;28;20339;-73
2022/01/08 10:44:27;;;;;;;1.03;0.77;;;;;;;2.04;91.25;94345.09;5056753;28;20652;-73
2022/01/08 10:46:57;;;;;;;3.40;1.10;;;;;;;1.87;93.31;94341.59;5070527;28;20292;-73
2022/01/08 10:49:42;;;;;;;1.10;0.80;;;;;;;1.53;94.98;94343.78;5070630;28;20246;-74
2022/01/08 10:52:11;;;;;;;0.87;0.80;;;;;;;1.22;96.60;94345.13;5057657;28;20228;-73
2022/01/08 10:54:42;;;;;;;0.73;0.73;;;;;;;1.27;96.48;94364.22;5070185;28;20209;-73
2022/01/08 10:57:09;;;;;;;1.80;1.20;;;;;;;1.09;95.37;94369.16;5068747;28;20292;-73
2022/01/08 10:59:36;;;;;;;1.00;0.90;;;;;;;1.33;96.87;94364.50;5068176;28;20205;-73
2022/01/08 11:02:13;;;;;;;1.53;1.00;;;;;;;1.22;95.33;94356.63;5036529;28;20278;-73
2022/01/08 11:04:51;;;;;;;1.33;1.10;;;;;;;1.08;94.83;94356.88;5061843;28;20186;-73
2022/01/08 11:07:22;;;;;;;1.80;0.87;;;;;;;1.02;96.30;94373.88;5066547;28;20211;-73
2022/01/08 11:10:03;;;;;;;1.40;1.30;;;;;;;1.07;98.57;94368.03;5063725;28;20194;-74
2022/01/08 11:12:36;;;;;;;1.60;1.20;;;;;;;1.17;100.00;94367.84;5040201;28;20201;-73
2022/01/08 11:17:44;;;;;;;2.07;1.23;;;;;;;1.45;100.00;94371.22;5069700;28;20210;-73
2022/01/08 11:20:17;;;;;;;1.20;1.00;;;;;;;1.25;100.00;94357.75;5059054;28;20206;-73
2022/01/08 11:22:45;;;;;;;2.30;1.60;;;;;;;0.94;100.00;94351.72;5051587;28;20195;-73
2022/01/08 11:25:17;;;;;;;1.33;0.93;;;;;;;1.41;100.00;94362.47;5049191;28;20209;-73
2022/01/08 11:27:46;;;;;;;0.70;0.70;;;;;;;2.27;93.73;94361.91;5048445;28;20193;-74
2022/01/08 11:30:19;;;;;;;0.97;0.80;;;;;;;2.37;92.14;94360.19;5052149;28;20281;-74
2022/01/08 11:32:46;;;;;;;1.77;1.10;;;;;;;2.32;91.49;94357.97;5050016;28;20199;-73
2022/01/08 11:35:12;;;;;;;1.00;0.90;;;;;;;1.92;94.19;94359.94;5048919;28;20308;-74
2022/01/08 11:37:45;;;;;;;1.97;1.00;;;;;;;2.27;92.68;94350.38;5075342;28;20225;-73
2022/01/08 11:40:12;;;;;;;0.60;0.60;;;;;;;2.55;91.00;94357.09;5064327;28;20234;-73
2022/01/08 11:42:38;;;;;;;1.30;1.20;;;;;;;3.00;89.45;94347.19;5088407;28;20193;-74
2022/01/08 11:45:07;;;;;;;0.90;0.90;;;;;;;3.18;86.62;94350.97;5059158;28;20248;-74
2022/01/08 11:47:33;;;;;;;0.93;0.90;;;;;;;2.92;86.19;94346.59;5051964;28;20187;-74
2022/01/08 11:50:01;;;;;;;1.60;0.77;;;;;;;2.39;87.75;94357.84;5061225;28;20273;-74
2022/01/08 11:52:26;;;;;;;0.80;0.80;;;;;;;2.05;90.23;94347.34;5062858;28;20193;-74
2022/01/08 11:54:53;;;;;;;0.93;0.80;;;;;;;1.43;91.92;94363.56;5066116;28;20199;-73
2022/01/08 11:57:29;;;;;;;1.20;0.90;;;;;;;1.55;93.01;94360.28;5055251;28;20213;-73